Time;durP1;ratioP1;P1;durP2;ratioP2;P2;SDS_P1;SDS_P2;PMS_P1;PMS_P2;Temp;Humidity;BMP_temperature;BMP_pressure;BME280_temperature;BME280_humidity;BME280_pressure;Samples;Min_cycle;Max_cycle;Signal;HPM_P1;HPM_P2
2024/01/20 00:00:37;;;;;;;54.75;44.80;;;9.00;91.20;;;;;;5068594;28;20425;-64
2024/01/20 00:03:03;;;;;;;55.15;43.80;;;9.30;93.30;;;;;;5068009;28;20044;-65
2024/01/20 00:05:28;;;;;;;52.33;44.95;;;9.30;93.20;;;;;;5068384;28;20048;-65
2024/01/20 00:07:54;;;;;;;53.30;44.20;;;9.40;92.30;;;;;;5068411;28;20051;-64
2024/01/20 00:10:19;;;;;;;55.03;44.97;;;9.20;90.10;;;;;;5068656;28;20102;-64
2024/01/20 00:12:45;;;;;;;50.15;42.85;;;9.40;89.00;;;;;;5067621;28;20045;-64
2024/01/20 00:15:11;;;;;;;46.85;41.85;;;9.20;87.40;;;;;;5068811;28;20037;-65
2024/01/20 00:17:37;;;;;;;49.60;42.38;;;9.20;87.20;;;;;;5067441;28;20039;-65
2024/01/20 00:20:04;;;;;;;46.08;40.92;;;9.20;89.30;;;;;;5066807;28;20133;-65
2024/01/20 00:22:29;;;;;;;47.85;42.70;;;9.10;80.70;;;;;;5068325;28;20083;-64
2024/01/20 00:24:59;;;;;;;49.33;41.65;;;9.30;81.90;;;;;;5068618;28;20570;-64
2024/01/20 00:27:25;;;;;;;52.35;43.58;;;9.10;82.40;;;;;;5067965;28;20062;-64
2024/01/20 00:29:50;;;;;;;48.78;43.60;;;9.30;86.70;;;;;;5066790;28;20044;-64
2024/01/20 00:32:16;;;;;;;54.88;47.28;;;9.30;90.30;;;;;;5067747;28;20049;-64
2024/01/20 00:34:41;;;;;;;53.78;43.22;;;9.30;88.60;;;;;;5067865;28;20074;-64
2024/01/20 00:37:07;;;;;;;50.28;40.08;;;9.10;91.60;;;;;;5068129;28;20584;-64
2024/01/20 00:39:32;;;;;;;45.58;40.80;;;9.30;94.50;;;;;;5068245;28;20093;-64
2024/01/20 00:41:58;;;;;;;53.25;41.40;;;9.30;97.90;;;;;;5068011;28;20110;-64
2024/01/20 00:44:23;;;;;;;53.22;41.40;;;9.40;98.50;;;;;;5067884;28;20523;-66
2024/01/20 00:46:49;;;;;;;46.72;41.72;;;9.60;96.70;;;;;;5067432;28;20494;-66
2024/01/20 00:49:14;;;;;;;50.90;45.30;;;9.40;92.60;;;;;;5067484;28;20493;-66
2024/01/20 00:51:40;;;;;;;50.35;42.70;;;9.50;93.40;;;;;;5067774;28;20047;-66
2024/01/20 00:54:06;;;;;;;47.65;39.70;;;9.40;92.00;;;;;;5065913;28;20036;-66
2024/01/20 00:56:32;;;;;;;54.03;39.40;;;9.40;90.30;;;;;;5067882;28;20044;-66
2024/01/20 00:58:58;;;;;;;45.67;40.50;;;9.20;79.10;;;;;;5064451;28;20040;-66
2024/01/20 01:01:23;;;;;;;58.78;39.53;;;9.20;65.60;;;;;;5033260;28;20440;-66
2024/01/20 01:03:49;;;;;;;43.05;37.70;;;8.90;61.50;;;;;;5067516;28;20499;-66
2024/01/20 01:06:14;;;;;;;46.90;37.05;;;9.00;63.50;;;;;;5067852;28;20044;-66
2024/01/20 01:08:40;;;;;;;46.50;37.42;;;8.80;67.10;;;;;;5067591;28;20572;-66
2024/01/20 01:11:05;;;;;;;45.78;39.47;;;8.80;65.90;;;;;;5066977;28;20552;-66
2024/01/20 01:13:35;;;;;;;50.47;38.03;;;8.70;67.20;;;;;;5066889;28;20468;-66
2024/01/20 01:16:01;;;;;;;58.33;44.65;;;8.90;66.40;;;;;;5067034;28;20058;-66
2024/01/20 01:18:27;;;;;;;56.03;43.05;;;8.80;84.10;;;;;;5066101;28;20656;-66
2024/01/20 01:20:52;;;;;;;45.22;39.28;;;9.10;98.80;;;;;;5048162;28;20066;-66
2024/01/20 01:23:18;;;;;;;47.10;38.42;;;9.50;99.00;;;;;;5067024;28;20036;-66
2024/01/20 01:25:43;;;;;;;46.10;37.10;;;9.50;92.00;;;;;;5066798;28;20037;-66
2024/01/20 01:28:09;;;;;;;45.40;34.38;;;9.60;85.90;;;;;;5065295;28;20051;-66
2024/01/20 01:30:34;;;;;;;48.05;36.50;;;9.30;73.70;;;;;;5066475;28;20058;-66
2024/01/20 01:33:00;;;;;;;45.65;36.47;;;9.40;68.80;;;;;;5066566;28;20072;-66
2024/01/20 01:35:25;;;;;;;49.10;40.10;;;9.30;55.40;;;;;;5065420;28;20032;-66
2024/01/20 01:37:51;;;;;;;47.85;38.83;;;9.40;54.00;;;;;;5066309;28;20269;-66
2024/01/20 01:40:16;;;;;;;47.38;38.50;;;9.40;51.90;;;;;;5066703;28;20048;-66
2024/01/20 01:42:42;;;;;;;44.30;36.50;;;9.30;50.30;;;;;;5066135;28;20048;-66
2024/01/20 01:45:08;;;;;;;51.45;39.55;;;9.00;37.10;;;;;;5065980;28;20040;-66
2024/01/20 01:47:33;;;;;;;48.15;38.47;;;8.90;41.10;;;;;;5065527;28;20486;-66
2024/01/20 01:49:59;;;;;;;50.67;37.28;;;9.00;42.40;;;;;;5066132;28;20053;-66
2024/01/20 01:52:26;;;;;;;49.63;39.38;;;8.80;39.00;;;;;;5059885;28;20079;-66
2024/01/20 01:54:52;;;;;;;47.22;39.60;;;9.30;72.90;;;;;;5064119;28;20048;-65
2024/01/20 01:57:18;;;;;;;49.03;36.22;;;9.50;89.60;;;;;;5066178;28;20149;-65
2024/01/20 01:59:45;;;;;;;50.13;42.80;;;9.50;81.50;;;;;;5056205;28;20053;-65
2024/01/20 02:02:11;;;;;;;47.72;42.92;;;9.30;80.20;;;;;;5029283;28;20056;-65
2024/01/20 02:04:37;;;;;;;45.25;40.58;;;9.30;66.10;;;;;;5065685;28;20054;-65
2024/01/20 02:07:03;;;;;;;46.10;41.47;;;9.40;68.70;;;;;;5066054;28;20194;-65
2024/01/20 02:09:31;;;;;;;53.72;44.58;;;9.30;65.70;;;;;;5065429;28;20394;-65
2024/01/20 02:11:58;;;;;;;48.25;41.08;;;9.40;63.30;;;;;;5066148;28;20036;-65
2024/01/20 02:14:24;;;;;;;49.40;43.28;;;9.10;58.90;;;;;;5066100;28;20064;-65
2024/01/20 02:16:50;;;;;;;52.08;43.33;;;9.30;60.60;;;;;;5065805;28;20047;-65
2024/01/20 02:19:16;;;;;;;47.83;41.72;;;9.20;63.60;;;;;;5066082;28;20085;-65
2024/01/20 02:21:41;;;;;;;42.60;37.85;;;9.00;72.40;;;;;;5065552;28;20142;-65
2024/01/20 02:24:09;;;;;;;42.75;38.25;;;9.00;73.80;;;;;;5065617;28;20047;-65
2024/01/20 02:26:34;;;;;;;48.42;42.47;;;9.20;81.60;;;;;;5064040;28;20032;-65
2024/01/20 02:29:00;;;;;;;47.85;39.30;;;9.00;86.50;;;;;;5065333;28;20089;-66
2024/01/20 02:31:25;;;;;;;53.10;42.90;;;9.10;90.70;;;;;;5046779;28;20508;-66
2024/01/20 02:33:51;;;;;;;58.25;43.25;;;9.30;90.70;;;;;;5065484;28;20028;-66
2024/01/20 02:36:16;;;;;;;54.03;44.20;;;9.10;91.50;;;;;;5064732;28;20521;-66
2024/01/20 02:38:42;;;;;;;51.92;44.92;;;9.20;91.90;;;;;;5065578;28;20048;-67
2024/01/20 02:41:08;;;;;;;53.13;44.70;;;9.20;92.60;;;;;;5065413;28;20036;-66
2024/01/20 02:43:33;;;;;;;50.15;44.08;;;9.10;93.90;;;;;;5065729;28;20079;-67
2024/01/20 02:45:59;;;;;;;51.55;45.85;;;9.30;94.50;;;;;;5058463;28;20040;-66
2024/01/20 02:48:24;;;;;;;58.90;46.35;;;9.30;96.10;;;;;;5065668;28;20033;-67
2024/01/20 02:50:50;;;;;;;53.22;47.38;;;9.20;94.90;;;;;;5065296;28;20040;-66
2024/01/20 02:53:15;;;;;;;61.97;48.53;;;9.30;95.60;;;;;;5065570;28;20041;-66
2024/01/20 02:55:41;;;;;;;53.38;47.45;;;9.30;95.50;;;;;;5063835;28;20071;-66
2024/01/20 02:58:07;;;;;;;51.22;44.30;;;9.30;94.30;;;;;;5064122;28;20048;-66
2024/01/20 03:00:32;;;;;;;58.72;47.13;;;9.20;93.60;;;;;;5061038;28;20053;-66
2024/01/20 03:02:58;;;;;;;51.55;45.38;;;9.30;92.80;;;;;;5065051;28;20106;-67
2024/01/20 03:05:23;;;;;;;57.30;47.33;;;9.20;92.10;;;;;;5065061;28;20155;-66
2024/01/20 03:07:49;;;;;;;50.78;45.67;;;9.40;90.90;;;;;;5064482;28;20115;-66
2024/01/20 03:10:14;;;;;;;51.63;45.38;;;9.30;87.40;;;;;;5064855;28;20126;-66
2024/01/20 03:12:40;;;;;;;51.95;44.15;;;9.30;84.90;;;;;;5065071;28;20045;-66
2024/01/20 03:15:07;;;;;;;59.70;44.63;;;9.30;84.60;;;;;;5064735;28;20115;-66
2024/01/20 03:17:33;;;;;;;47.83;41.15;;;9.20;88.50;;;;;;5064929;28;20041;-66
2024/01/20 03:19:58;;;;;;;57.40;45.67;;;9.40;85.60;;;;;;5064979;28;20105;-66
2024/01/20 03:22:24;;;;;;;53.42;44.90;;;9.30;86.20;;;;;;5064490;28;20152;-66
2024/01/20 03:24:49;;;;;;;51.80;43.22;;;9.50;83.50;;;;;;5065056;28;20055;-66
2024/01/20 03:27:17;;;;;;;53.58;42.75;;;9.40;80.00;;;;;;5065026;28;20127;-66
2024/01/20 03:29:43;;;;;;;54.58;43.22;;;9.60;74.10;;;;;;5063763;28;20091;-66
2024/01/20 03:32:08;;;;;;;48.00;41.38;;;9.40;65.90;;;;;;5065019;28;20079;-66
2024/01/20 03:34:34;;;;;;;55.50;41.55;;;9.40;59.30;;;;;;5064731;28;20033;-66
2024/01/20 03:36:59;;;;;;;44.03;38.10;;;9.60;55.40;;;;;;5055314;28;20060;-66
2024/01/20 03:39:25;;;;;;;45.05;40.17;;;9.30;50.90;;;;;;5065263;28;20456;-66
2024/01/20 03:41:50;;;;;;;48.92;41.80;;;9.30;52.20;;;;;;5065345;28;20047;-66
2024/01/20 03:44:16;;;;;;;44.53;39.72;;;9.60;52.80;;;;;;5064560;28;20070;-66
2024/01/20 03:46:41;;;;;;;54.15;41.53;;;9.60;51.50;;;;;;5064620;28;20036;-66
2024/01/20 03:49:07;;;;;;;45.42;40.72;;;9.40;49.90;;;;;;5064456;28;20068;-66
2024/01/20 03:51:33;;;;;;;47.58;42.65;;;9.30;46.40;;;;;;5053642;28;20072;-66
2024/01/20 03:53:58;;;;;;;52.58;43.45;;;9.40;46.30;;;;;;5065011;28;20390;-66
2024/01/20 03:56:24;;;;;;;52.72;40.50;;;9.40;46.40;;;;;;5063107;28;20510;-66
2024/01/20 03:58:49;;;;;;;52.20;40.80;;;9.20;48.70;;;;;;5066006;28;20036;-66
2024/01/20 04:01:15;;;;;;;48.28;43.08;;;9.10;49.10;;;;;;5047955;28;20680;-66
2024/01/20 04:03:40;;;;;;;45.22;40.58;;;9.10;53.30;;;;;;5054348;28;20078;-66
2024/01/20 04:06:06;;;;;;;51.40;42.65;;;9.30;55.50;;;;;;5068122;28;20524;-66
2024/01/20 04:08:31;;;;;;;48.88;43.60;;;9.20;57.60;;;;;;5068324;28;20051;-66
2024/01/20 04:10:57;;;;;;;49.95;40.33;;;9.40;63.10;;;;;;5068150;28;20043;-66
2024/01/20 04:13:23;;;;;;;57.15;42.53;;;9.50;67.20;;;;;;5067480;28;20056;-66
2024/01/20 04:15:49;;;;;;;48.50;39.00;;;9.30;60.10;;;;;;5068004;28;20498;-62
2024/01/20 04:18:14;;;;;;;54.97;40.03;;;9.40;59.60;;;;;;5068244;28;20531;-63
2024/01/20 04:20:40;;;;;;;49.72;38.55;;;9.20;58.50;;;;;;5067779;28;20044;-63
2024/01/20 04:23:06;;;;;;;50.65;39.08;;;9.40;58.80;;;;;;5067297;28;20036;-63
2024/01/20 04:25:31;;;;;;;43.28;38.33;;;9.40;58.10;;;;;;5068232;28;20143;-64
2024/01/20 04:27:57;;;;;;;49.15;40.92;;;9.50;66.10;;;;;;5067797;28;20040;-63
2024/01/20 04:30:22;;;;;;;46.28;41.47;;;9.30;62.70;;;;;;5067717;28;20098;-63
2024/01/20 04:32:48;;;;;;;45.85;40.78;;;9.40;50.30;;;;;;5067645;28;20518;-63
2024/01/20 04:35:14;;;;;;;46.88;41.78;;;9.30;45.50;;;;;;5067676;28;20436;-64
2024/01/20 04:37:39;;;;;;;48.50;42.95;;;9.30;46.60;;;;;;5066738;28;20507;-64
2024/01/20 04:40:05;;;;;;;50.53;45.15;;;9.30;48.50;;;;;;5067176;28;20052;-63
2024/01/20 04:42:31;;;;;;;48.00;43.10;;;9.20;47.80;;;;;;5067239;28;20067;-62
2024/01/20 04:44:57;;;;;;;52.80;42.80;;;9.20;51.10;;;;;;5067247;28;20044;-64
2024/01/20 04:47:23;;;;;;;52.10;42.85;;;9.40;51.30;;;;;;5067102;28;20044;-64
2024/01/20 04:49:51;;;;;;;58.13;46.65;;;9.30;49.40;;;;;;5067103;28;20391;-64
2024/01/20 04:52:18;;;;;;;48.72;43.58;;;9.30;51.00;;;;;;5067205;28;20067;-64
2024/01/20 04:54:43;;;;;;;47.70;42.42;;;9.10;52.80;;;;;;5063241;28;20409;-63
2024/01/20 04:57:09;;;;;;;48.38;40.42;;;9.20;54.50;;;;;;5049543;28;20458;-63
2024/01/20 04:59:34;;;;;;;56.95;41.42;;;9.20;56.90;;;;;;5059053;28;20044;-62
2024/01/20 05:02:00;;;;;;;58.53;45.75;;;9.00;58.60;;;;;;5047122;28;20490;-62
2024/01/20 05:04:25;;;;;;;45.45;40.75;;;9.20;59.30;;;;;;5047173;28;20060;-62
2024/01/20 05:06:51;;;;;;;58.65;40.80;;;9.30;60.60;;;;;;5047029;28;20049;-63
2024/01/20 05:09:16;;;;;;;53.00;39.75;;;9.30;61.30;;;;;;5059611;28;20045;-64
2024/01/20 05:11:42;;;;;;;42.85;38.20;;;9.30;61.90;;;;;;5066911;28;20052;-64
2024/01/20 05:14:08;;;;;;;45.13;40.35;;;9.40;61.00;;;;;;5067040;28;20051;-64
2024/01/20 05:16:34;;;;;;;54.15;39.45;;;9.20;63.60;;;;;;5065665;28;20048;-63
2024/01/20 05:18:59;;;;;;;48.42;39.10;;;9.30;59.60;;;;;;5066744;28;20486;-63
2024/01/20 05:21:25;;;;;;;46.78;41.33;;;9.30;56.50;;;;;;5064981;28;20066;-63
2024/01/20 05:23:51;;;;;;;43.58;39.13;;;9.30;53.90;;;;;;5069603;28;20032;-62
2024/01/20 05:26:17;;;;;;;45.58;38.58;;;9.10;49.60;;;;;;5066920;28;20040;-64
2024/01/20 05:28:42;;;;;;;46.08;39.58;;;9.20;48.80;;;;;;5048590;28;20435;-64
2024/01/20 05:31:08;;;;;;;43.53;37.08;;;9.10;48.30;;;;;;5066405;28;20721;-63
2024/01/20 05:33:39;;;;;;;43.10;36.00;;;9.10;47.20;;;;;;5066381;28;20044;-65
2024/01/20 05:36:05;;;;;;;40.13;35.75;;;9.10;46.30;;;;;;5066466;28;20040;-63
2024/01/20 05:38:31;;;;;;;40.85;36.47;;;9.20;46.40;;;;;;5069237;28;20037;-63
2024/01/20 05:40:56;;;;;;;36.17;31.83;;;9.20;40.60;;;;;;5066297;28;20052;-63
2024/01/20 05:43:22;;;;;;;37.97;33.92;;;8.90;36.80;;;;;;5066302;28;20044;-64
2024/01/20 05:45:47;;;;;;;39.60;35.65;;;9.00;39.40;;;;;;5064979;28;20044;-64
2024/01/20 05:48:13;;;;;;;40.60;35.15;;;8.90;42.80;;;;;;5066225;28;20110;-64
2024/01/20 05:50:38;;;;;;;44.17;38.38;;;8.90;41.00;;;;;;5066310;28;20037;-64
2024/01/20 05:53:04;;;;;;;42.85;38.20;;;8.90;44.80;;;;;;5064530;28;20040;-62
2024/01/20 05:55:30;;;;;;;42.67;38.22;;;8.80;46.90;;;;;;5065607;28;20047;-63
2024/01/20 05:57:55;;;;;;;39.85;35.63;;;8.90;49.30;;;;;;5065610;28;20093;-64
2024/01/20 06:00:22;;;;;;;42.42;37.75;;;8.90;50.10;;;;;;5051624;28;20045;-63
2024/01/20 06:02:47;;;;;;;57.05;38.67;;;9.00;50.80;;;;;;5046014;28;20417;-62
2024/01/20 06:05:13;;;;;;;47.38;39.38;;;9.00;52.40;;;;;;5027661;28;20036;-63
2024/01/20 06:07:39;;;;;;;42.33;38.08;;;9.20;53.20;;;;;;5028129;28;20037;-63
2024/01/20 06:10:05;;;;;;;46.33;39.30;;;9.20;54.60;;;;;;5045686;28;20414;-63
2024/01/20 06:12:30;;;;;;;42.95;37.53;;;9.10;54.10;;;;;;5052347;28;20032;-64
2024/01/20 06:14:56;;;;;;;49.28;39.03;;;9.30;49.40;;;;;;5047632;28;20150;-63
2024/01/20 06:17:21;;;;;;;48.25;38.10;;;9.10;46.90;;;;;;5065672;28;20049;-64
2024/01/20 06:19:47;;;;;;;40.70;34.80;;;9.30;49.00;;;;;;5065858;28;20363;-65
2024/01/20 06:22:13;;;;;;;42.67;37.13;;;9.50;49.60;;;;;;5066123;28;20083;-64
2024/01/20 06:24:38;;;;;;;48.72;39.90;;;9.30;48.20;;;;;;5065438;28;20506;-63
2024/01/20 06:27:04;;;;;;;48.13;37.55;;;9.30;55.10;;;;;;5065455;28;20040;-66
2024/01/20 06:29:29;;;;;;;49.70;38.08;;;9.60;40.60;;;;;;5064201;28;20051;-66
2024/01/20 06:31:55;;;;;;;44.80;37.13;;;9.40;38.10;;;;;;5065760;28;20191;-66
2024/01/20 06:34:20;;;;;;;39.33;35.17;;;9.40;44.20;;;;;;5064382;28;20512;-66
2024/01/20 06:36:46;;;;;;;40.67;36.50;;;9.40;29.70;;;;;;5065390;28;20084;-66
2024/01/20 06:39:12;;;;;;;49.00;37.67;;;9.60;28.00;;;;;;5065355;28;20056;-66
2024/01/20 06:41:37;;;;;;;40.45;34.90;;;9.60;23.90;;;;;;5065077;28;20074;-66
2024/01/20 06:44:03;;;;;;;42.33;35.70;;;9.60;21.70;;;;;;5065313;28;20045;-66
2024/01/20 06:46:28;;;;;;;42.63;37.33;;;9.40;21.40;;;;;;5065113;28;20044;-66
2024/01/20 06:48:54;;;;;;;42.22;35.28;;;9.60;20.00;;;;;;5065134;28;20075;-66
2024/01/20 06:51:22;;;;;;;45.55;36.38;;;9.40;18.30;;;;;;5065530;28;20044;-66
2024/01/20 06:53:52;;;;;;;42.63;35.05;;;9.50;18.40;;;;;;5063911;28;20044;-66
2024/01/20 06:56:17;;;;;;;39.05;34.70;;;9.60;18.20;;;;;;5046501;28;20075;-66
2024/01/20 06:58:43;;;;;;;49.10;37.15;;;9.60;18.20;;;;;;5064781;28;20041;-66
2024/01/20 07:01:09;;;;;;;43.67;35.85;;;9.50;17.50;;;;;;5045726;28;20048;-66
2024/01/20 07:03:34;;;;;;;39.63;35.55;;;9.60;16.60;;;;;;5046984;28;20044;-66
2024/01/20 07:06:00;;;;;;;42.95;35.53;;;9.80;15.50;;;;;;5065180;28;20076;-66
2024/01/20 07:08:26;;;;;;;45.47;34.83;;;9.70;15.40;;;;;;5065414;28;20421;-66
2024/01/20 07:10:51;;;;;;;39.33;34.92;;;9.80;14.80;;;;;;5064918;28;20162;-66
2024/01/20 07:13:17;;;;;;;45.38;35.58;;;9.80;15.50;;;;;;5068595;28;20502;-66
2024/01/20 07:15:42;;;;;;;45.83;37.53;;;9.80;15.40;;;;;;5070552;28;20054;-66
2024/01/20 07:18:08;;;;;;;46.25;36.55;;;9.80;21.50;;;;;;5064727;28;20071;-66
2024/01/20 07:20:33;;;;;;;40.22;36.15;;;9.90;21.50;;;;;;5074956;28;20044;-66
2024/01/20 07:22:59;;;;;;;47.08;35.55;;;9.60;16.10;;;;;;5071574;28;20048;-66
2024/01/20 07:25:25;;;;;;;53.95;40.30;;;9.70;17.10;;;;;;5064669;28;20040;-66
2024/01/20 07:27:50;;;;;;;50.15;40.10;;;9.50;18.50;;;;;;5064401;28;20115;-66
2024/01/20 07:30:16;;;;;;;44.88;39.80;;;9.70;20.70;;;;;;5077434;28;20040;-66
2024/01/20 07:32:41;;;;;;;45.72;37.55;;;9.80;23.90;;;;;;5064149;28;20156;-66
2024/01/20 07:35:08;;;;;;;41.72;37.35;;;9.70;24.10;;;;;;5067452;28;20063;-66
2024/01/20 07:37:37;;;;;;;54.75;38.53;;;9.50;27.90;;;;;;5072956;28;20157;-66
2024/01/20 07:40:04;;;;;;;45.85;38.90;;;9.60;29.60;;;;;;5075457;28;20045;-66
2024/01/20 07:42:29;;;;;;;53.03;38.78;;;9.50;33.70;;;;;;5069429;28;20091;-66
2024/01/20 07:44:55;;;;;;;47.72;38.63;;;9.70;38.90;;;;;;5069672;28;20079;-66
2024/01/20 07:47:20;;;;;;;44.38;35.85;;;9.60;43.20;;;;;;5074678;28;20055;-66
2024/01/20 07:49:46;;;;;;;43.25;33.78;;;9.70;45.50;;;;;;5064471;28;20580;-66
2024/01/20 07:52:12;;;;;;;48.20;39.88;;;9.50;47.20;;;;;;5067689;28;20044;-66
2024/01/20 07:54:37;;;;;;;39.38;35.17;;;9.70;51.80;;;;;;5067566;28;20150;-66
2024/01/20 07:57:03;;;;;;;40.30;33.75;;;9.60;52.80;;;;;;5067756;28;20044;-66
2024/01/20 07:59:29;;;;;;;48.90;36.67;;;9.70;54.50;;;;;;5079799;28;20043;-66
2024/01/20 08:01:54;;;;;;;51.33;39.90;;;9.60;55.90;;;;;;5039955;28;20090;-66
2024/01/20 08:04:21;;;;;;;43.88;36.40;;;9.50;60.00;;;;;;5067402;28;20033;-66
2024/01/20 08:06:46;;;;;;;51.20;45.72;;;9.60;59.40;;;;;;5077957;28;20810;-63
2024/01/20 08:09:12;;;;;;;52.40;45.20;;;9.40;49.60;;;;;;5087702;28;20040;-63
2024/01/20 08:11:38;;;;;;;61.67;49.08;;;9.20;50.50;;;;;;5088274;28;20097;-66
2024/01/20 08:14:03;;;;;;;59.42;49.17;;;8.80;57.90;;;;;;5075131;28;20048;-66
2024/01/20 08:16:29;;;;;;;67.22;55.25;;;8.80;67.30;;;;;;5084037;28;20381;-66
2024/01/20 08:18:58;;;;;;;49.58;44.40;;;8.60;80.80;;;;;;5066813;28;20040;-66
2024/01/20 08:21:23;;;;;;;65.60;52.42;;;8.80;93.90;;;;;;5065447;28;20046;-66
2024/01/20 08:23:49;;;;;;;70.88;55.65;;;8.70;99.20;;;;;;5063317;28;20032;-67
2024/01/20 08:26:14;;;;;;;70.97;58.50;;;8.70;99.90;;;;;;5080099;28;20551;-66
2024/01/20 08:28:40;;;;;;;70.82;53.05;;;8.60;99.90;;;;;;5083377;28;20421;-67
2024/01/20 08:31:06;;;;;;;80.03;56.25;;;8.60;99.90;;;;;;5075523;28;20036;-66
2024/01/20 08:33:31;;;;;;;78.30;57.20;;;8.50;99.90;;;;;;5065896;28;20084;-66
2024/01/20 08:35:57;;;;;;;78.93;64.38;;;8.80;99.90;;;;;;5083960;28;20044;-66
2024/01/20 08:38:23;;;;;;;83.68;61.35;;;8.70;99.90;;;;;;5067445;28;20040;-67
2024/01/20 08:40:48;;;;;;;73.95;63.53;;;8.70;99.90;;;;;;5065184;28;20040;-66
2024/01/20 08:43:18;;;;;;;80.25;64.88;;;8.60;99.90;;;;;;5074221;28;20036;-66
2024/01/20 08:45:43;;;;;;;81.70;68.53;;;8.90;99.90;;;;;;5068106;28;20498;-66
2024/01/20 08:48:09;;;;;;;85.90;66.25;;;8.80;99.90;;;;;;5055654;28;20041;-66
2024/01/20 08:50:35;;;;;;;81.07;63.10;;;8.70;99.90;;;;;;5041179;28;20063;-67
2024/01/20 08:53:00;;;;;;;73.50;58.22;;;8.50;99.90;;;;;;5064787;28;20504;-66
2024/01/20 08:55:26;;;;;;;63.28;52.85;;;8.50;99.90;;;;;;5066214;28;20028;-66
2024/01/20 08:57:52;;;;;;;79.95;61.13;;;8.40;99.90;;;;;;5066547;28;20467;-66
2024/01/20 09:00:18;;;;;;;84.57;63.55;;;8.30;99.90;;;;;;5062676;28;20051;-66
2024/01/20 09:02:44;;;;;;;84.15;61.33;;;8.20;99.90;;;;;;5050106;28;20048;-66
2024/01/20 09:05:10;;;;;;;88.88;67.90;;;8.40;99.90;;;;;;5065707;28;20081;-66
2024/01/20 09:07:36;;;;;;;90.38;69.68;;;8.20;99.90;;;;;;5065442;28;20044;-66
2024/01/20 09:10:03;;;;;;;74.82;60.10;;;8.50;99.90;;;;;;5071570;28;20052;-66
2024/01/20 09:12:29;;;;;;;80.00;63.50;;;8.30;99.90;;;;;;5078643;28;20032;-66
2024/01/20 09:14:55;;;;;;;77.80;63.25;;;8.40;99.90;;;;;;5080047;28;20032;-66
2024/01/20 09:17:20;;;;;;;81.70;60.75;;;8.40;99.90;;;;;;5079728;28;20598;-66
2024/01/20 09:19:46;;;;;;;70.80;57.20;;;8.20;99.90;;;;;;5069187;28;20039;-66
2024/01/20 09:22:12;;;;;;;75.35;59.78;;;8.50;99.90;;;;;;5070271;28;20056;-66
2024/01/20 09:24:37;;;;;;;81.50;64.00;;;8.50;99.90;;;;;;5048740;28;20840;-66
2024/01/20 09:27:03;;;;;;;71.35;57.38;;;8.30;99.90;;;;;;5066868;28;20509;-66
2024/01/20 09:29:28;;;;;;;79.60;66.38;;;8.40;99.90;;;;;;5063910;28;20048;-66
2024/01/20 09:31:54;;;;;;;83.80;66.55;;;8.40;99.90;;;;;;5071049;28;20028;-66
2024/01/20 09:34:20;;;;;;;99.57;74.43;;;8.30;99.90;;;;;;5076101;28;20374;-66
2024/01/20 09:36:45;;;;;;;105.57;72.72;;;8.20;99.90;;;;;;5030399;28;1046036;-66
2024/01/20 09:39:12;;;;;;;90.18;70.10;;;8.30;99.90;;;;;;5064928;28;20488;-66
2024/01/20 09:41:39;;;;;;;71.43;57.03;;;8.20;99.90;;;;;;5048856;28;20469;-66
2024/01/20 09:44:06;;;;;;;77.30;52.00;;;8.10;99.90;;;;;;5080916;28;20048;-66
2024/01/20 09:46:32;;;;;;;65.88;51.80;;;8.10;99.90;;;;;;5066164;28;20123;-66
2024/01/20 09:49:00;;;;;;;66.93;52.72;;;7.80;99.90;;;;;;5065964;28;20135;-66
2024/01/20 09:51:28;;;;;;;72.28;55.58;;;7.70;99.90;;;;;;5079943;28;20347;-66
2024/01/20 09:53:59;;;;;;;74.35;55.10;;;7.90;99.90;;;;;;5081943;28;20036;-66
2024/01/20 09:56:25;;;;;;;73.15;54.33;;;8.10;1.00;;;;;;5065899;28;20040;-64
2024/01/20 09:58:52;;;;;;;71.43;52.13;;;8.30;1.00;;;;;;5059930;28;20043;-63
2024/01/20 10:01:20;;;;;;;78.82;59.67;;;8.80;1.00;;;;;;5078892;28;20117;-64
2024/01/20 10:03:46;;;;;;;76.32;60.55;;;8.90;1.00;;;;;;5043466;28;20044;-64
2024/01/20 10:06:12;;;;;;;76.22;59.72;;;8.50;1.00;;;;;;5067488;28;20039;-64
2024/01/20 10:08:37;;;;;;;72.43;59.40;;;8.70;1.00;;;;;;5036624;28;20829;-64
2024/01/20 10:11:03;;;;;;;96.53;61.85;;;8.40;1.00;;;;;;5061626;28;20098;-64
2024/01/20 10:13:30;;;;;;;114.15;67.90;;;8.80;1.00;;;;;;5065188;28;20040;-65
2024/01/20 10:15:55;;;;;;;89.80;65.18;;;8.60;1.00;;;;;;5071402;28;20036;-61
2024/01/20 10:18:21;;;;;;;85.05;59.67;;;8.60;1.00;;;;;;5080428;28;20046;-62
2024/01/20 10:20:47;;;;;;;80.25;54.85;;;8.70;1.00;;;;;;5073738;28;20037;-63
2024/01/20 10:23:12;;;;;;;78.22;61.00;;;8.40;1.00;;;;;;5079716;28;20044;-62
2024/01/20 10:25:38;;;;;;;82.68;62.17;;;8.70;1.00;;;;;;5068931;28;20037;-61
2024/01/20 10:28:04;;;;;;;70.13;55.30;;;8.80;1.00;;;;;;5064689;28;20378;-62
2024/01/20 10:30:30;;;;;;;151.68;60.28;;;8.50;1.00;;;;;;5066545;28;20139;-64
2024/01/20 10:32:58;;;;;;;64.38;55.83;;;9.10;90.60;;;;;;5058184;28;20552;-63
2024/01/20 10:35:24;;;;;;;73.20;57.22;;;8.80;6.80;;;;;;5062087;28;20044;-63
2024/01/20 10:37:50;;;;;;;87.05;59.88;;;8.60;1.00;;;;;;5047726;28;20059;-62
2024/01/20 10:40:16;;;;;;;82.10;62.85;;;8.80;1.00;;;;;;5065341;28;20083;-63
2024/01/20 10:42:46;;;;;;;87.65;65.03;;;8.60;1.80;;;;;;5069464;28;20093;-63
2024/01/20 10:45:17;;;;;;;73.97;65.53;;;8.60;1.00;;;;;;5076783;28;20149;-64
2024/01/20 10:47:57;;;;;;;87.68;65.10;;;8.80;1.00;;;;;;5077344;28;20071;-62
2024/01/20 10:50:24;;;;;;;61.83;52.92;;;8.80;1.00;;;;;;5072528;28;20128;-63
2024/01/20 10:52:51;;;;;;;74.25;52.75;;;8.80;13.40;;;;;;5065084;28;20528;-63
2024/01/20 10:55:18;;;;;;;71.78;54.72;;;8.70;32.00;;;;;;5055961;28;20041;-63
2024/01/20 10:57:44;;;;;;;72.40;56.17;;;8.70;29.80;;;;;;5069389;28;20043;-64
2024/01/20 11:00:11;;;;;;;67.55;55.78;;;9.00;26.70;;;;;;5086039;28;20119;-63
2024/01/20 11:02:37;;;;;;;70.10;57.97;;;8.70;18.30;;;;;;5086010;28;20849;-63
2024/01/20 11:05:16;;;;;;;75.68;60.20;;;8.80;11.00;;;;;;5055364;28;20422;-63
2024/01/20 11:07:41;;;;;;;77.80;60.90;;;8.60;14.20;;;;;;5078452;28;20052;-66
2024/01/20 11:10:08;;;;;;;63.78;56.75;;;8.90;19.60;;;;;;5069218;28;20544;-66
2024/01/20 11:12:34;;;;;;;76.05;63.45;;;8.70;14.40;;;;;;5057892;28;20035;-64
2024/01/20 11:14:59;;;;;;;65.40;53.10;;;8.60;24.10;;;;;;5074921;28;20049;-63
2024/01/20 11:17:26;;;;;;;69.03;53.20;;;8.50;1.00;;;;;;5070810;28;20469;-64
2024/01/20 11:19:51;;;;;;;61.33;50.45;;;8.60;1.00;;;;;;5068626;28;20174;-64
2024/01/20 11:22:33;;;;;;;60.35;49.20;;;8.60;1.20;;;;;;5068942;28;20040;-65
2024/01/20 11:25:06;;;;;;;61.65;51.00;;;8.70;1.00;;;;;;5073963;28;20040;-64
2024/01/20 11:27:45;;;;;;;80.50;58.88;;;8.40;1.00;;;;;;5069226;28;20037;-64
2024/01/20 11:30:11;;;;;;;75.90;57.85;;;8.50;29.50;;;;;;5074375;28;20055;-64
2024/01/20 11:32:36;;;;;;;206.07;65.22;;;8.70;47.00;;;;;;5071135;28;20039;-64
2024/01/20 11:35:04;;;;;;;71.60;58.63;;;9.20;99.90;;;;;;5070858;28;20052;-64
2024/01/20 11:37:31;;;;;;;73.50;56.70;;;8.70;90.00;;;;;;5069528;28;20060;-64
2024/01/20 11:40:10;;;;;;;72.28;55.47;;;9.50;35.20;;;;;;5068931;28;20826;-64
2024/01/20 11:42:35;;;;;;;75.88;53.20;;;8.60;64.90;;;;;;5066304;28;20173;-64
2024/01/20 11:45:05;;;;;;;65.45;51.28;;;8.80;84.10;;;;;;5067308;28;20058;-64
2024/01/20 11:47:31;;;;;;;75.75;56.10;;;9.20;89.70;;;;;;5063655;28;20166;-63
2024/01/20 11:49:58;;;;;;;82.18;61.85;;;8.80;85.90;;;;;;5067853;28;20063;-69
2024/01/20 11:52:25;;;;;;;69.80;58.83;;;9.00;58.40;;;;;;5067633;28;20064;-67
2024/01/20 11:54:51;;;;;;;65.75;58.45;;;9.00;47.00;;;;;;5061988;28;20369;-67
2024/01/20 11:57:26;;;;;;;66.50;57.67;;;8.80;67.40;;;;;;5048988;28;20041;-67
2024/01/20 11:59:53;;;;;;;92.35;64.15;;;9.00;39.10;;;;;;5062611;28;20451;-67
2024/01/20 12:02:20;;;;;;;83.65;64.05;;;9.10;42.20;;;;;;5083249;28;20094;-67
2024/01/20 12:04:45;;;;;;;60.40;52.45;;;8.70;30.10;;;;;;5050349;28;20044;-67
2024/01/20 12:07:11;;;;;;;73.60;56.80;;;8.70;19.00;;;;;;5068383;28;20086;-64
2024/01/20 12:09:37;;;;;;;68.03;54.60;;;9.00;1.00;;;;;;5067868;28;20047;-66
2024/01/20 12:12:03;;;;;;;71.07;50.63;;;9.00;1.00;;;;;;5068430;28;20109;-65
2024/01/20 12:14:29;;;;;;;66.70;51.20;;;8.90;1.00;;;;;;5067462;28;20033;-63
2024/01/20 12:16:55;;;;;;;64.75;53.22;;;8.90;1.00;;;;;;5038771;28;20055;-64
2024/01/20 12:19:21;;;;;;;63.67;52.70;;;8.90;1.00;;;;;;5067653;28;20726;-64
2024/01/20 12:21:47;;;;;;;53.40;46.45;;;8.70;1.00;;;;;;5067946;28;20051;-65
2024/01/20 12:24:13;;;;;;;64.18;53.78;;;8.60;1.00;;;;;;5067749;28;20055;-64
2024/01/20 12:26:40;;;;;;;60.42;50.08;;;8.70;1.00;;;;;;5067073;28;20666;-64
2024/01/20 12:29:07;;;;;;;74.45;59.20;;;8.90;27.40;;;;;;5067611;28;20615;-65
2024/01/20 12:31:32;;;;;;;63.83;54.25;;;9.30;1.00;;;;;;5067010;28;20044;-65